Time;durP1;ratioP1;P1;durP2;ratioP2;P2;SDS_P1;SDS_P2;PMS_P1;PMS_P2;Temp;Humidity;BMP_temperature;BMP_pressure;BME280_temperature;BME280_humidity;BME280_pressure;Samples;Min_cycle;Max_cycle;Signal;HPM_P1;HPM_P2
2022/10/22 00:02:32;;;;;;;6.50;3.70;;;21.20;70.50;;;;;;213382;1280;23852;-58
2022/10/22 00:07:36;;;;;;;9.30;4.10;;;21.20;70.30;;;;;;213502;1294;25292;-58
2022/10/22 00:12:40;;;;;;;8.20;3.70;;;21.20;70.20;;;;;;213962;1286;25335;-58
2022/10/22 00:17:43;;;;;;;9.70;4.60;;;21.20;70.00;;;;;;213484;1288;23088;-59
2022/10/22 00:22:47;;;;;;;9.60;4.10;;;21.20;69.90;;;;;;213547;1281;22507;-60
2022/10/22 00:27:57;;;;;;;13.80;4.80;;;21.20;70.30;;;;;;213603;1294;25654;-58
2022/10/22 00:33:04;;;;;;;8.50;4.40;;;21.20;69.90;;;;;;213414;1280;27581;-55
2022/10/22 00:38:07;;;;;;;8.20;4.50;;;21.20;69.80;;;;;;213893;1288;25664;-59
2022/10/22 00:43:14;;;;;;;9.60;4.10;;;21.10;69.70;;;;;;213566;1286;22709;-58
2022/10/22 00:48:24;;;;;;;10.00;4.90;;;21.20;69.70;;;;;;213596;1280;22687;-58
2022/10/22 00:53:33;;;;;;;7.30;3.90;;;21.10;69.60;;;;;;213611;1288;22759;-59
2022/10/22 00:58:42;;;;;;;8.30;3.90;;;21.10;70.00;;;;;;213566;1302;22484;-59
2022/10/22 01:03:47;;;;;;;9.60;4.00;;;21.10;70.00;;;;;;216077;1290;22584;-58
2022/10/22 01:08:59;;;;;;;7.70;3.40;;;21.10;70.00;;;;;;213670;1284;22719;-58
2022/10/22 01:14:15;;;;;;;11.10;4.00;;;21.10;69.70;;;;;;213511;1280;24273;-58
2022/10/22 01:19:32;;;;;;;7.80;4.50;;;21.10;69.70;;;;;;213522;1290;22542;-58
2022/10/22 01:24:51;;;;;;;6.30;3.60;;;21.10;69.50;;;;;;213533;1292;22496;-58
2022/10/22 01:30:05;;;;;;;6.50;3.80;;;21.10;69.60;;;;;;213523;1283;23473;-57
2022/10/22 01:35:14;;;;;;;6.70;3.70;;;21.00;69.60;;;;;;213617;1284;24255;-57
2022/10/22 01:40:18;;;;;;;8.70;3.70;;;21.00;69.60;;;;;;213570;1288;22468;-59
2022/10/22 01:45:22;;;;;;;8.40;3.80;;;21.00;69.60;;;;;;213616;1286;24244;-58
2022/10/22 01:50:37;;;;;;;7.20;3.80;;;21.00;69.70;;;;;;213552;1281;22526;-58
2022/10/22 01:56:27;;;;;;;7.60;3.70;;;21.00;70.20;;;;;;213549;1287;24312;-57
2022/10/22 02:01:51;;;;;;;6.00;3.30;;;21.00;69.90;;;;;;212226;1293;22484;-58
2022/10/22 02:06:59;;;;;;;9.60;3.80;;;20.90;70.20;;;;;;213289;1292;24245;-58
2022/10/22 02:12:07;;;;;;;7.20;3.80;;;20.90;69.90;;;;;;213489;1280;22991;-58
2022/10/22 02:17:17;;;;;;;7.10;3.90;;;20.90;69.90;;;;;;213245;1286;24989;-57
2022/10/22 02:22:21;;;;;;;6.50;4.00;;;20.90;69.90;;;;;;213126;1288;25536;-57
2022/10/22 02:27:33;;;;;;;8.50;3.90;;;20.90;69.80;;;;;;217948;1286;24249;-57
2022/10/22 02:32:52;;;;;;;7.20;3.60;;;20.90;69.80;;;;;;213322;1280;22548;-57
2022/10/22 02:37:58;;;;;;;5.10;3.50;;;20.90;69.80;;;;;;213391;1288;22474;-57
2022/10/22 02:43:04;;;;;;;5.60;3.50;;;20.90;70.10;;;;;;213490;1293;24395;-59
2022/10/22 02:48:11;;;;;;;6.50;3.50;;;21.00;70.00;;;;;;213515;1287;23202;-58
2022/10/22 02:53:15;;;;;;;7.30;3.60;;;21.30;69.70;;;;;;213480;1288;22485;-58
2022/10/22 02:58:23;;;;;;;4.70;3.20;;;21.50;69.70;;;;;;213568;1288;25379;-58
2022/10/22 03:03:27;;;;;;;6.10;3.90;;;21.60;68.80;;;;;;213645;1280;22860;-57
2022/10/22 03:08:32;;;;;;;6.80;3.10;;;21.80;68.50;;;;;;213598;1283;22719;-57
2022/10/22 03:13:36;;;;;;;5.40;3.20;;;21.80;68.20;;;;;;213701;1294;22858;-57
2022/10/22 03:18:43;;;;;;;5.00;3.20;;;21.90;68.10;;;;;;213517;1294;22526;-57
2022/10/22 03:23:53;;;;;;;5.60;3.20;;;22.00;68.40;;;;;;213581;1288;24369;-58
2022/10/22 03:28:56;;;;;;;4.20;3.10;;;22.10;67.60;;;;;;213712;1286;23855;-59
2022/10/22 03:34:00;;;;;;;4.40;3.10;;;22.20;67.70;;;;;;213726;1280;22481;-58
2022/10/22 03:39:04;;;;;;;5.90;3.50;;;22.20;67.40;;;;;;213617;1287;25372;-53
2022/10/22 03:44:08;;;;;;;5.60;3.40;;;22.20;67.50;;;;;;213578;1280;22483;-58
2022/10/22 03:49:11;;;;;;;6.60;3.30;;;22.10;67.60;;;;;;213690;1287;24816;-59
2022/10/22 03:54:16;;;;;;;6.20;3.60;;;22.10;67.80;;;;;;213533;1294;22512;-59
2022/10/22 03:59:19;;;;;;;4.00;2.60;;;22.00;67.80;;;;;;213579;1280;22721;-59
2022/10/22 04:04:22;;;;;;;5.90;3.10;;;22.00;67.90;;;;;;213461;1280;23883;-59
2022/10/22 04:09:26;;;;;;;3.60;2.50;;;22.00;67.70;;;;;;213533;1288;23531;-59
2022/10/22 04:14:29;;;;;;;5.40;3.20;;;21.90;68.00;;;;;;213518;1280;22480;-58
2022/10/22 04:19:37;;;;;;;5.30;3.20;;;21.90;68.40;;;;;;213614;1284;24324;-57
2022/10/22 04:24:41;;;;;;;3.90;2.60;;;21.90;68.20;;;;;;213619;1288;22607;-57
2022/10/22 04:29:44;;;;;;;11.20;4.10;;;21.90;68.50;;;;;;213601;1284;25505;-58
2022/10/22 04:34:48;;;;;;;4.80;3.00;;;21.90;67.90;;;;;;213647;1287;22487;-57
2022/10/22 04:39:51;;;;;;;5.60;2.80;;;21.90;68.00;;;;;;213602;1288;22525;-58
2022/10/22 04:44:55;;;;;;;7.70;3.50;;;21.90;68.40;;;;;;213524;1280;25392;-57
2022/10/22 04:49:58;;;;;;;5.00;2.80;;;21.90;68.30;;;;;;213675;1282;24275;-57
2022/10/22 04:55:02;;;;;;;9.80;4.10;;;21.90;67.90;;;;;;213706;1286;22530;-59
2022/10/22 05:00:07;;;;;;;4.60;3.00;;;21.90;68.00;;;;;;213672;1288;22629;-58
2022/10/22 05:05:20;;;;;;;8.20;3.60;;;21.90;68.50;;;;;;213661;1287;24322;-58
2022/10/22 05:10:25;;;;;;;8.70;3.00;;;21.90;68.00;;;;;;213419;1286;25727;-58
2022/10/22 05:15:28;;;;;;;4.60;2.80;;;21.90;68.00;;;;;;213503;1288;25548;-58
2022/10/22 05:20:31;;;;;;;9.30;3.40;;;21.90;68.00;;;;;;213428;1280;22542;-58
2022/10/22 05:25:38;;;;;;;4.40;3.00;;;21.90;68.00;;;;;;213539;1283;25718;-58
2022/10/22 05:30:53;;;;;;;11.30;3.90;;;21.90;67.80;;;;;;213506;1288;25305;-59
2022/10/22 05:35:57;;;;;;;4.10;2.60;;;21.90;68.10;;;;;;213620;1288;22499;-59
2022/10/22 05:41:04;;;;;;;3.50;2.30;;;21.90;68.00;;;;;;213514;1286;25255;-54
2022/10/22 05:46:11;;;;;;;10.20;3.80;;;22.00;67.80;;;;;;213511;1281;24392;-59
2022/10/22 05:51:14;;;;;;;4.90;2.90;;;21.90;68.50;;;;;;213568;1280;23883;-59
2022/10/22 05:56:18;;;;;;;4.60;2.50;;;21.90;67.90;;;;;;213649;1288;24018;-58
2022/10/22 06:01:27;;;;;;;8.10;3.30;;;22.00;68.20;;;;;;213382;1287;22490;-58
2022/10/22 06:06:42;;;;;;;5.00;2.70;;;21.90;67.80;;;;;;213519;1288;209107;-57
2022/10/22 06:11:45;;;;;;;6.70;3.20;;;22.00;68.30;;;;;;213576;1280;22641;-58
2022/10/22 06:16:50;;;;;;;5.60;2.80;;;22.00;68.20;;;;;;213605;1288;22721;-58
2022/10/22 06:21:53;;;;;;;6.70;3.00;;;22.00;67.80;;;;;;213544;1288;25903;-58
2022/10/22 06:26:57;;;;;;;7.90;3.40;;;22.00;67.60;;;;;;213609;1288;22743;-58
2022/10/22 06:32:01;;;;;;;7.80;2.70;;;22.00;67.70;;;;;;213424;1280;24280;-57
2022/10/22 06:37:09;;;;;;;9.20;3.20;;;21.90;67.60;;;;;;213512;1291;22908;-57
2022/10/22 06:42:19;;;;;;;11.20;4.00;;;21.90;67.20;;;;;;213689;1288;22539;-57
2022/10/22 06:47:35;;;;;;;8.40;3.20;;;21.90;68.20;;;;;;213351;1288;24357;-57
2022/10/22 06:52:55;;;;;;;10.00;3.30;;;21.90;67.70;;;;;;213449;1295;24268;-59
2022/10/22 06:57:59;;;;;;;6.20;3.00;;;22.00;67.40;;;;;;213706;1288;25390;-57
2022/10/22 07:03:02;;;;;;;8.80;3.10;;;22.10;67.40;;;;;;213441;1283;22499;-59
2022/10/22 07:08:07;;;;;;;14.40;3.60;;;22.20;67.50;;;;;;213407;1287;23088;-58
2022/10/22 07:13:16;;;;;;;8.50;4.00;;;22.10;67.50;;;;;;213346;1283;22584;-57
2022/10/22 07:18:20;;;;;;;16.80;4.80;;;22.10;67.50;;;;;;213280;1284;22499;-58
2022/10/22 07:23:26;;;;;;;12.90;4.30;;;22.10;67.90;;;;;;213479;1284;25213;-56
2022/10/22 07:28:39;;;;;;;8.70;4.10;;;22.00;68.30;;;;;;213459;1283;25282;-58
2022/10/22 07:34:06;;;;;;;7.40;4.20;;;21.90;69.70;;;;;;213315;1284;22497;-52
2022/10/22 07:39:19;;;;;;;13.70;4.50;;;21.90;69.80;;;;;;213467;1283;22599;-61
2022/10/22 07:44:23;;;;;;;9.30;3.80;;;21.90;69.70;;;;;;213323;1288;24243;-56
2022/10/22 07:49:30;;;;;;;13.80;3.90;;;21.90;69.50;;;;;;213561;1283;22508;-58
2022/10/22 07:54:33;;;;;;;11.60;4.30;;;21.80;69.60;;;;;;213313;1286;22526;-56
2022/10/22 07:59:40;;;;;;;9.20;4.00;;;21.80;69.50;;;;;;213361;1288;24427;-57
2022/10/22 08:04:43;;;;;;;7.40;4.30;;;21.70;69.00;;;;;;213464;1288;22470;-55
2022/10/22 08:09:47;;;;;;;16.60;5.40;;;21.70;69.40;;;;;;213419;1288;22474;-57
2022/10/22 08:14:52;;;;;;;12.70;5.50;;;21.80;68.60;;;;;;213295;1294;22738;-55
2022/10/22 08:19:59;;;;;;;14.50;5.30;;;21.80;68.80;;;;;;213375;1286;24040;-56
2022/10/22 08:25:14;;;;;;;15.60;5.70;;;21.70;68.30;;;;;;213431;1284;22506;-56
2022/10/22 08:30:18;;;;;;;15.00;5.00;;;21.70;68.60;;;;;;213423;1286;22595;-56
2022/10/22 08:35:21;;;;;;;21.40;6.30;;;21.70;68.50;;;;;;213259;1294;24229;-55
2022/10/22 08:40:38;;;;;;;6.80;4.30;;;21.70;68.10;;;;;;213394;1300;23866;-56
2022/10/22 08:45:53;;;;;;;10.10;5.20;;;21.70;67.90;;;;;;213215;1287;24258;-56
2022/10/22 08:51:11;;;;;;;17.50;5.80;;;21.70;67.90;;;;;;213373;1288;26539;-56
2022/10/22 08:56:17;;;;;;;14.10;4.80;;;21.60;67.70;;;;;;213592;1292;22733;-54
2022/10/22 09:02:13;;;;;;;13.40;5.10;;;21.60;67.60;;;;;;213361;1288;23863;-58
2022/10/22 09:07:49;;;;;;;9.40;4.80;;;21.60;67.60;;;;;;213353;1291;24227;-57
2022/10/22 09:12:56;;;;;;;8.90;4.80;;;21.70;67.40;;;;;;213430;1290;25620;-56
2022/10/22 09:18:38;;;;;;;8.50;4.60;;;21.60;67.30;;;;;;213329;1293;24504;-56
2022/10/22 09:24:10;;;;;;;13.50;4.60;;;21.60;67.30;;;;;;213476;1283;22850;-56
2022/10/22 09:29:28;;;;;;;7.00;4.80;;;21.60;67.10;;;;;;213433;1286;22841;-56
2022/10/22 09:34:32;;;;;;;;;;;21.60;67.10;;;;;;213366;1293;23209;-56
2022/10/22 09:39:40;;;;;;;7.60;4.90;;;21.60;67.10;;;;;;213363;1291;24217;-55
2022/10/22 09:44:52;;;;;;;11.70;4.90;;;21.60;67.10;;;;;;213328;1288;23113;-57
2022/10/22 09:50:25;;;;;;;10.80;5.50;;;21.60;67.30;;;;;;213539;1288;23902;-54
2022/10/22 09:55:37;;;;;;;10.20;4.40;;;21.70;67.50;;;;;;213146;1287;22640;-54
2022/10/22 10:01:07;;;;;;;11.70;5.10;;;21.60;67.90;;;;;;213437;1291;25512;-53
2022/10/22 10:06:18;;;;;;;10.20;5.00;;;21.60;68.00;;;;;;213443;1294;24390;-54
2022/10/22 10:11:33;;;;;;;10.20;4.80;;;21.60;67.70;;;;;;213516;1287;22479;-54
2022/10/22 10:17:07;;;;;;;9.90;4.80;;;21.60;68.40;;;;;;213618;1289;22482;-60
2022/10/22 10:22:57;;;;;;;8.10;4.20;;;21.60;67.50;;;;;;213230;1291;25368;-57
2022/10/22 10:28:26;;;;;;;9.20;4.40;;;21.60;67.90;;;;;;213539;1284;24227;-57
2022/10/22 10:33:45;;;;;;;13.00;5.50;;;21.70;67.40;;;;;;213404;1286;25278;-57
2022/10/22 10:39:05;;;;;;;13.30;5.00;;;21.70;67.40;;;;;;213256;1300;22477;-55
2022/10/22 10:45:01;;;;;;;19.30;6.00;;;21.70;67.50;;;;;;213401;1286;24245;-55
2022/10/22 10:50:45;;;;;;;9.10;4.50;;;21.70;67.80;;;;;;213598;1287;25393;-56
2022/10/22 10:56:14;;;;;;;10.60;5.10;;;21.60;68.60;;;;;;213387;1288;22474;-56
2022/10/22 11:02:25;;;;;;;9.70;5.20;;;21.60;69.60;;;;;;213476;1284;23502;-56
2022/10/22 11:07:48;;;;;;;17.30;5.90;;;21.50;70.50;;;;;;213363;1284;22618;-57
2022/10/22 11:13:12;;;;;;;8.20;4.20;;;21.50;70.70;;;;;;213330;1290;24278;-57
2022/10/22 11:18:48;;;;;;;13.90;5.50;;;21.60;70.20;;;;;;213723;1288;23887;-57
2022/10/22 11:24:17;;;;;;;15.70;4.70;;;21.70;70.70;;;;;;213465;1286;24245;-56
2022/10/22 11:29:24;;;;;;;12.50;4.80;;;21.60;70.60;;;;;;213292;1288;23983;-58
2022/10/22 11:35:00;;;;;;;7.90;5.00;;;21.70;70.30;;;;;;213216;1286;23851;-56
2022/10/22 11:40:40;;;;;;;12.10;4.60;;;21.70;70.90;;;;;;213486;1288;25315;-56
2022/10/22 11:46:19;;;;;;;10.80;5.20;;;21.70;71.40;;;;;;213468;1280;22564;-56
2022/10/22 11:51:38;;;;;;;12.30;5.20;;;21.60;71.80;;;;;;213709;1284;24242;-59
2022/10/22 11:56:56;;;;;;;17.90;6.70;;;21.60;72.30;;;;;;213600;1280;22510;-57
2022/10/22 12:02:42;;;;;;;11.30;5.30;;;21.60;72.50;;;;;;213505;1282;22824;-58
2022/10/22 12:08:17;;;;;;;13.40;5.70;;;21.60;72.20;;;;;;213320;1284;25320;-55
2022/10/22 12:13:51;;;;;;;13.60;5.40;;;21.60;72.50;;;;;;213515;1283;24243;-57
2022/10/22 12:19:09;;;;;;;10.80;5.30;;;21.50;72.60;;;;;;213337;1294;22478;-57
2022/10/22 12:24:19;;;;;;;11.30;5.30;;;21.50;72.80;;;;;;213350;1280;22729;-56
2022/10/22 12:29:25;;;;;;;14.90;5.30;;;21.50;73.00;;;;;;213385;1286;24452;-55
2022/10/22 12:34:33;;;;;;;12.30;5.30;;;21.50;73.30;;;;;;213591;1288;24820;-56
2022/10/22 12:39:44;;;;;;;10.50;4.80;;;21.50;72.80;;;;;;213466;1288;25092;-56
2022/10/22 12:45:04;;;;;;;14.80;4.40;;;21.50;73.00;;;;;;213338;1284;22463;-55
2022/10/22 12:50:19;;;;;;;12.00;5.50;;;21.50;73.30;;;;;;213506;1281;25584;-56
2022/10/22 12:55:30;;;;;;;13.50;5.50;;;21.50;73.00;;;;;;213594;1286;23896;-56
2022/10/22 13:00:47;;;;;;;15.50;6.20;;;21.50;73.00;;;;;;213394;1284;24261;-54
2022/10/22 13:05:57;;;;;;;20.50;5.30;;;21.50;75.90;;;;;;213337;1288;22531;-56
2022/10/22 13:11:09;;;;;;;18.10;5.10;;;21.60;76.20;;;;;;213431;1280;22649;-56
2022/10/22 13:16:26;;;;;;;12.50;4.60;;;21.60;75.40;;;;;;213352;1288;22463;-55
2022/10/22 13:22:00;;;;;;;21.10;5.70;;;21.60;75.30;;;;;;213423;1288;22558;-51
2022/10/22 13:27:08;;;;;;;10.40;5.00;;;21.70;76.20;;;;;;213366;1288;25209;-55
2022/10/22 13:32:31;;;;;;;9.60;4.50;;;21.70;76.10;;;;;;213437;1288;22553;-56
2022/10/22 13:37:38;;;;;;;8.90;4.20;;;21.70;75.60;;;;;;213625;1288;24762;-56
2022/10/22 13:42:46;;;;;;;14.90;5.00;;;21.60;75.80;;;;;;213569;1283;22506;-56
2022/10/22 13:47:52;;;;;;;10.70;4.60;;;21.60;75.80;;;;;;213659;1288;22947;-56
2022/10/22 13:52:59;;;;;;;15.30;5.10;;;21.70;75.50;;;;;;215581;1288;25310;-56
2022/10/22 13:58:09;;;;;;;12.30;3.70;;;21.60;75.10;;;;;;213518;1286;22730;-58
2022/10/22 14:03:20;;;;;;;10.80;4.40;;;21.70;75.50;;;;;;213519;1284;22542;-57
2022/10/22 14:08:25;;;;;;;15.90;4.50;;;21.70;75.00;;;;;;213421;1280;24263;-60
2022/10/22 14:13:31;;;;;;;15.60;5.10;;;21.70;75.20;;;;;;213402;1283;22483;-58
2022/10/22 14:18:35;;;;;;;11.00;3.90;;;21.70;75.20;;;;;;213624;1284;24235;-57
2022/10/22 14:23:41;;;;;;;22.40;6.20;;;21.70;75.10;;;;;;213502;1287;24798;-55
2022/10/22 14:28:45;;;;;;;17.90;4.90;;;21.60;75.00;;;;;;213612;1284;22496;-58
2022/10/22 14:34:11;;;;;;;25.20;4.80;;;21.60;75.30;;;;;;213223;1286;25461;-58
2022/10/22 14:39:15;;;;;;;14.40;4.20;;;21.60;73.80;;;;;;213282;1297;22482;-59
2022/10/22 14:44:33;;;;;;;10.30;4.30;;;21.50;74.10;;;;;;213421;1284;24241;-59
2022/10/22 14:49:37;;;;;;;18.50;5.10;;;21.40;73.60;;;;;;213429;1283;24249;-59
2022/10/22 14:54:47;;;;;;;11.40;4.00;;;21.40;73.60;;;;;;213611;1288;24251;-59
2022/10/22 14:59:56;;;;;;;7.70;3.60;;;21.40;73.80;;;;;;213479;1288;22629;-59
2022/10/22 15:05:29;;;;;;;13.90;4.50;;;21.40;74.10;;;;;;213549;1290;22716;-59
2022/10/22 15:10:57;;;;;;;13.30;4.10;;;21.40;73.80;;;;;;213537;1283;22645;-58
2022/10/22 15:16:05;;;;;;;9.20;4.50;;;21.30;74.00;;;;;;213539;1289;23904;-58
2022/10/22 15:21:18;;;;;;;8.30;4.30;;;21.30;73.60;;;;;;213460;1294;23475;-59
2022/10/22 15:26:21;;;;;;;8.30;4.00;;;21.30;73.60;;;;;;213290;1296;22805;-59
2022/10/22 15:31:48;;;;;;;10.30;3.80;;;21.30;73.70;;;;;;213621;1286;25276;-59
2022/10/22 15:36:55;;;;;;;11.50;4.50;;;21.30;73.60;;;;;;213687;1297;22574;-58
2022/10/22 15:41:59;;;;;;;8.60;4.10;;;21.20;73.60;;;;;;213530;1288;25486;-58
2022/10/22 15:47:03;;;;;;;10.20;4.70;;;21.30;73.60;;;;;;213610;1291;24264;-59
2022/10/22 15:52:08;;;;;;;8.50;3.70;;;21.30;73.50;;;;;;213670;1286;22494;-58
2022/10/22 15:57:12;;;;;;;13.40;4.20;;;21.20;73.30;;;;;;213803;1288;24288;-59
2022/10/22 16:02:32;;;;;;;8.70;3.80;;;21.20;73.30;;;;;;213576;1290;22775;-58
2022/10/22 16:07:36;;;;;;;7.30;4.00;;;21.20;73.30;;;;;;213592;1288;23891;-59
2022/10/22 16:13:00;;;;;;;8.80;3.80;;;21.20;73.30;;;;;;213493;1286;22856;-58
2022/10/22 16:18:04;;;;;;;9.80;4.20;;;21.20;73.20;;;;;;213500;1288;22480;-59
2022/10/22 16:23:08;;;;;;;8.30;3.90;;;21.20;73.60;;;;;;213583;1288;22721;-58
2022/10/22 16:28:12;;;;;;;7.90;4.00;;;21.10;72.70;;;;;;213474;1287;22627;-57
2022/10/22 16:33:19;;;;;;;6.30;3.70;;;21.10;73.20;;;;;;213519;1288;22591;-58
2022/10/22 16:38:22;;;;;;;9.50;3.70;;;21.10;72.80;;;;;;213365;1307;22504;-58
2022/10/22 16:43:28;;;;;;;6.80;4.30;;;21.10;72.90;;;;;;213468;1297;22491;-60
2022/10/22 16:48:32;;;;;;;6.40;3.80;;;21.00;73.10;;;;;;213646;1288;22505;-59
2022/10/22 16:53:36;;;;;;;7.00;3.60;;;21.10;72.70;;;;;;213455;1290;22709;-58
2022/10/22 16:58:46;;;;;;;8.10;4.30;;;21.00;72.60;;;;;;213434;1293;25216;-59
2022/10/22 17:03:52;;;;;;;9.90;3.80;;;21.00;72.60;;;;;;213373;1288;25266;-58
2022/10/22 17:08:56;;;;;;;11.00;4.60;;;21.00;72.60;;;;;;213439;1288;24675;-59
2022/10/22 17:14:08;;;;;;;8.20;3.70;;;21.00;72.40;;;;;;213437;1281;22479;-59
2022/10/22 17:19:14;;;;;;;10.30;4.30;;;21.00;72.40;;;;;;213597;1290;22728;-58
2022/10/22 17:24:18;;;;;;;10.60;4.40;;;21.00;73.00;;;;;;213540;1278;23884;-58
2022/10/22 17:29:24;;;;;;;8.30;4.10;;;21.00;72.40;;;;;;213637;1286;22622;-58
2022/10/22 17:34:42;;;;;;;9.30;4.20;;;21.00;72.40;;;;;;213564;1288;22562;-60
2022/10/22 17:40:24;;;;;;;7.80;3.80;;;20.90;72.20;;;;;;212678;1290;24287;-58
2022/10/22 17:45:28;;;;;;;18.70;5.30;;;21.00;72.30;;;;;;213018;1290;22506;-59
2022/10/22 17:50:31;;;;;;;6.40;3.50;;;20.90;72.40;;;;;;213007;1292;22518;-59
2022/10/22 17:55:35;;;;;;;6.70;4.00;;;20.90;72.40;;;;;;213009;1289;25364;-58
2022/10/22 18:00:38;;;;;;;9.70;4.60;;;20.90;72.10;;;;;;212992;1290;22858;-59
2022/10/22 18:05:42;;;;;;;10.10;4.40;;;20.90;71.70;;;;;;213338;1288;208993;-56
2022/10/22 18:11:00;;;;;;;9.30;4.80;;;20.90;72.10;;;;;;213628;1290;22502;-58
2022/10/22 18:16:09;;;;;;;6.60;3.80;;;20.90;72.40;;;;;;213373;1291;22704;-59
2022/10/22 18:21:14;;;;;;;13.10;4.30;;;20.90;72.30;;;;;;213551;1288;24205;-59
2022/10/22 18:26:19;;;;;;;9.40;4.00;;;21.10;71.30;;;;;;213627;1286;22495;-58
2022/10/22 18:31:29;;;;;;;6.20;4.20;;;21.30;70.70;;;;;;213523;1288;22493;-59
2022/10/22 18:36:36;;;;;;;5.90;3.50;;;21.50;70.50;;;;;;213577;1288;25507;-59
2022/10/22 18:41:40;;;;;;;5.50;3.40;;;21.60;69.70;;;;;;213517;1284;25215;-59
2022/10/22 18:46:47;;;;;;;8.40;4.20;;;21.70;69.40;;;;;;213486;1290;22762;-56
2022/10/22 18:52:04;;;;;;;6.50;3.70;;;21.80;69.00;;;;;;213480;1281;22493;-59
2022/10/22 18:57:16;;;;;;;8.00;3.60;;;21.90;68.80;;;;;;213564;1287;22552;-57
2022/10/22 19:02:28;;;;;;;8.00;4.30;;;21.90;68.40;;;;;;213763;1286;24248;-59
2022/10/22 19:07:35;;;;;;;8.30;3.90;;;22.00;68.50;;;;;;213567;1284;24300;-59
2022/10/22 19:12:39;;;;;;;5.70;3.60;;;22.10;68.00;;;;;;213590;1285;24761;-59
2022/10/22 19:18:01;;;;;;;13.10;4.00;;;22.20;68.00;;;;;;213466;1280;24244;-59
2022/10/22 19:23:29;;;;;;;5.70;3.70;;;22.30;67.90;;;;;;213528;1284;24365;-58
2022/10/22 19:28:40;;;;;;;8.40;4.00;;;22.20;67.70;;;;;;213412;1287;25262;-59
2022/10/22 19:33:47;;;;;;;8.90;4.20;;;22.20;67.80;;;;;;213717;1296;23276;-59
2022/10/22 19:38:57;;;;;;;6.20;3.80;;;22.10;67.70;;;;;;213420;1287;24230;-59
2022/10/22 19:44:16;;;;;;;7.00;3.90;;;22.10;67.80;;;;;;213639;1280;25347;-58
2022/10/22 19:49:48;;;;;;;7.20;4.00;;;22.10;67.80;;;;;;213590;1288;22865;-58
2022/10/22 19:54:59;;;;;;;7.70;3.80;;;22.10;67.80;;;;;;213620;1288;25788;-57
2022/10/22 20:00:22;;;;;;;7.60;4.00;;;22.00;67.70;;;;;;213477;1280;22598;-58
2022/10/22 20:05:32;;;;;;;6.90;3.80;;;22.00;68.40;;;;;;213542;1287;25312;-58
2022/10/22 20:10:41;;;;;;;7.70;4.10;;;22.00;67.90;;;;;;213514;1286;24342;-59
2022/10/22 20:16:05;;;;;;;8.90;4.20;;;22.00;68.10;;;;;;213516;1310;22518;-59
2022/10/22 20:21:34;;;;;;;5.80;4.10;;;22.00;67.80;;;;;;213409;1290;22482;-58
2022/10/22 20:27:15;;;;;;;8.90;4.80;;;22.00;67.60;;;;;;213460;1284;25405;-59
2022/10/22 20:32:22;;;;;;;5.20;3.50;;;22.00;67.60;;;;;;213589;1281;22507;-59
2022/10/22 20:37:27;;;;;;;5.70;3.80;;;22.00;67.90;;;;;;213520;1287;24285;-57
2022/10/22 20:42:56;;;;;;;7.00;4.20;;;22.00;67.60;;;;;;213392;1290;25654;-58
2022/10/22 20:48:11;;;;;;;5.90;4.20;;;22.00;67.50;;;;;;213814;1281;23187;-59
2022/10/22 20:53:36;;;;;;;5.70;3.80;;;22.00;67.50;;;;;;213524;1281;22559;-58
2022/10/22 20:59:19;;;;;;;6.30;3.90;;;22.00;67.90;;;;;;213697;1282;22490;-59
2022/10/22 21:05:25;;;;;;;7.10;3.60;;;22.00;67.60;;;;;;213549;1286;25566;-58
2022/10/22 21:11:01;;;;;;;9.00;4.40;;;22.00;67.10;;;;;;213440;1288;25523;-58
2022/10/22 21:16:51;;;;;;;6.00;3.60;;;22.00;67.10;;;;;;213405;1287;23879;-59
2022/10/22 21:22:21;;;;;;;6.10;3.90;;;22.00;66.90;;;;;;213667;1284;24721;-59
2022/10/22 21:27:59;;;;;;;8.30;4.30;;;22.00;66.90;;;;;;213481;1288;24254;-59
2022/10/22 21:33:56;;;;;;;6.50;4.00;;;22.00;66.70;;;;;;213542;1286;25251;-59
2022/10/22 21:39:29;;;;;;;7.80;4.00;;;22.00;66.90;;;;;;213549;1294;22821;-58
2022/10/22 21:44:59;;;;;;;7.10;4.20;;;22.00;66.80;;;;;;213410;1282;25587;-59
2022/10/22 21:50:46;;;;;;;5.10;3.30;;;22.00;66.50;;;;;;213639;1287;22472;-58
2022/10/22 21:56:24;;;;;;;6.50;4.20;;;22.00;66.60;;;;;;213397;1295;25314;-58
2022/10/22 22:02:04;;;;;;;5.70;3.80;;;22.00;66.40;;;;;;213300;1288;22503;-59
2022/10/22 22:07:37;;;;;;;7.80;3.50;;;22.00;66.40;;;;;;213584;1280;22484;-58
2022/10/22 22:13:16;;;;;;;6.20;3.80;;;22.00;67.10;;;;;;213406;1280;22720;-59
2022/10/22 22:18:51;;;;;;;7.70;4.00;;;22.00;66.30;;;;;;213341;1280;24035;-58
2022/10/22 22:24:13;;;;;;;8.40;4.50;;;22.00;66.20;;;;;;213604;1286;22902;-58
2022/10/22 22:29:20;;;;;;;9.70;3.90;;;22.10;66.10;;;;;;213420;1287;22516;-57
2022/10/22 22:34:24;;;;;;;5.80;3.70;;;22.00;66.10;;;;;;213484;1287;24248;-60
2022/10/22 22:39:39;;;;;;;7.20;3.80;;;22.00;65.80;;;;;;213524;1291;24354;-58
2022/10/22 22:44:43;;;;;;;8.10;3.90;;;22.00;65.70;;;;;;213676;1288;22476;-58
2022/10/22 22:49:46;;;;;;;5.50;3.60;;;22.00;65.70;;;;;;213695;1296;25353;-58
2022/10/22 22:54:51;;;;;;;9.80;4.30;;;22.00;65.90;;;;;;213617;1280;22528;-58
2022/10/22 22:59:57;;;;;;;8.10;3.90;;;22.00;65.50;;;;;;213487;1288;25310;-57
2022/10/22 23:05:02;;;;;;;6.10;3.80;;;22.00;65.40;;;;;;213450;1287;24248;-59
2022/10/22 23:10:11;;;;;;;10.30;3.70;;;22.10;65.70;;;;;;213446;1290;24404;-57
2022/10/22 23:15:15;;;;;;;15.10;4.70;;;22.00;65.70;;;;;;213576;1281;25006;-55
2022/10/22 23:20:21;;;;;;;14.20;4.40;;;22.00;66.60;;;;;;213463;1288;22726;-57
2022/10/22 23:25:25;;;;;;;16.50;5.00;;;22.10;69.50;;;;;;213496;1288;25371;-58
2022/10/22 23:30:29;;;;;;;11.20;3.70;;;22.10;70.10;;;;;;213508;1287;22539;-59
2022/10/22 23:35:39;;;;;;;12.90;3.80;;;22.10;70.20;;;;;;213461;1288;22476;-59
2022/10/22 23:40:45;;;;;;;14.20;4.40;;;22.00;70.50;;;;;;213420;1288;26484;-59
2022/10/22 23:45:51;;;;;;;42.50;4.90;;;22.00;70.20;;;;;;213493;1280;22493;-58
2022/10/22 23:50:54;;;;;;;11.70;4.30;;;21.90;70.40;;;;;;213520;1294;22563;-58
2022/10/22 23:56:08;;;;;;;6.50;3.30;;;21.90;70.30;;;;;;213325;1281;22719;-58
